Granite Falls, Minnesota
Current Conditions -  °F | °C
As of 8:32 PM on Saturday 20 Dec 2014 (Local Time) from KGDB Reporting Station
Overcast Overcast  
Wind Chill: 19°   Ceiling: 900
Heat Index: 31°   Visibility: 7mi
Dew Point: 28°   Wind: 17mph
Humidity: 91%   Direction: 150°SSE
Pressure: 30.03"   Gusts: NA
Location:  44.81°N, 95.55°W
Report Text: KGDB 210232Z AUTO 15015KT 7SM OVC009 M01/M02 A3003 RMK AO2 T10071020
Loading
Personal Weather Stations






























Interactive Weather Map New forecast layout! Learn more

10-Day Weather Forecast

Advertisements
Track Severe Weather on mobile